Allendale, Illinois
Current Conditions -  °F | °C
As of 6:55 PM on Monday 22 Dec 2014 (Local Time) from KAJG Reporting Station
Overcast Overcast  
Wind Chill: 52°   Ceiling: 2200
Heat Index: 52°   Visibility: 10mi
Dew Point: 46°   Wind: 13mph
Humidity: 82%   Direction: 140°SE
Pressure: 29.63"   Gusts: NA
Location:  38.53°N, 87.71°W
Report Text: KAJG 230055Z AUTO 14011KT 10SM OVC022 11/08 A2963 RMK AO2 LTG DSNT S
Loading
Personal Weather Stations






























Interactive Weather Map New forecast layout! Learn more

10-Day Weather Forecast

Advertisements
Track Severe Weather on mobile